Florence, Montana
Current Conditions -  °F | °C
As of 6:26 PM on Sunday 23 Nov 2014 (Local Time) from KMSO Reporting Station
Light Rain Light Rain  
Wind Chill: 29°   Ceiling: 3500
Heat Index: 37°   Visibility: 10mi
Dew Point: 30°   Wind: 12mph
Humidity: 76%   Direction: 310°NW
Pressure: 29.98"   Gusts: NA
Location:  46.63°N, 114.09°W
Report Text: KMSO 240126Z 31010KT 10SM -RA OVC035 03/M01 A2998 RMK AO2 RAB21 P0000 T00281011
Loading
Personal Weather Stations






























Interactive Weather Map New forecast layout! Learn more

10-Day Weather Forecast

Advertisements
Track Severe Weather on mobile